Friday, May 6, 2016, 8:59 AM EDT

KJYO, Leesburg / Godfrey

Location: Leesburg, VA, United States Lat: 39.083
Local Time: 8:59 AM EDT (12:59 GMT) Lon: -77.567
Time Zone: US/Eastern Elev: 390 ft

Show me the last for .
Show Decoded

2016-05-06 08:35 METAR KJYO 061235Z AUTO 34005KT 10SM -RA OVC040 12/12 A2970 RMK AO2 =
2016-05-06 08:15 METAR KJYO 061215Z AUTO 34007KT 10SM -RA OVC040 12/12 A2970 RMK AO2 =
2016-05-06 07:55 METAR KJYO 061155Z AUTO 35006KT 10SM -RA SCT037 OVC045 12/11 A2970 RMK AO2 =
2016-05-06 07:35 METAR KJYO 061135Z AUTO 35008KT 10SM RA OVC047 12/11 A2970 RMK AO2 =
2016-05-06 07:15 METAR KJYO 061115Z AUTO 34006KT 10SM -RA SCT030 OVC043 12/11 A2970 RMK AO2 =
2016-05-06 06:55 METAR KJYO 061055Z AUTO 33004KT 10SM BKN030 OVC039 12/11 A2969 RMK AO2 =
2016-05-06 06:35 METAR KJYO 061035Z AUTO 35005KT 10SM BKN030 OVC039 11/11 A2969 RMK AO2 =
2016-05-06 06:15 METAR KJYO 061015Z AUTO 34004KT 10SM BKN041 OVC049 11/11 A2968 RMK AO2 =
2016-05-06 05:55 METAR KJYO 060955Z AUTO 32005KT 10SM OVC049 11/11 A2968 RMK AO2 =
2016-05-06 05:35 METAR KJYO 060935Z AUTO 32004KT 10SM SCT029 SCT035 OVC049 11/11 A2968 RMK AO2 =
2016-05-06 05:15 METAR KJYO 060915Z AUTO 35006KT 10SM -RA BKN029 OVC033 11/11 A2968 RMK AO2 =
2016-05-06 04:55 METAR KJYO 060855Z AUTO 36007KT 10SM OVC029 12/12 A2968 RMK AO2 =
2016-05-06 04:35 METAR KJYO 060835Z AUTO 36005KT 10SM OVC032 11/11 A2968 RMK AO2 =
2016-05-06 04:15 METAR KJYO 060815Z AUTO 34008KT 10SM OVC032 11/11 A2967 RMK AO2 =
2016-05-06 03:55 METAR KJYO 060755Z AUTO 35006KT 10SM -RA OVC032 12/11 A2967 RMK AO2 =
2016-05-06 03:35 METAR KJYO 060735Z AUTO 34005KT 10SM OVC030 11/11 A2968 RMK AO2 =
2016-05-06 03:15 METAR KJYO 060715Z AUTO 35004KT 10SM SCT022 OVC028 11/11 A2968 RMK AO2 =
2016-05-06 02:55 METAR KJYO 060655Z AUTO 36003KT 10SM OVC022 11/11 A2968 RMK AO2 =
2016-05-06 02:35 METAR KJYO 060635Z AUTO 36004KT 10SM OVC022 12/12 A2968 RMK AO2 =
2016-05-06 02:15 METAR KJYO 060615Z AUTO 36006KT 10SM OVC024 12/12 A2969 RMK AO2 =
2016-05-06 01:55 METAR KJYO 060555Z AUTO 35004KT 10SM BKN028 OVC034 11/11 A2969 RMK AO2 =
2016-05-06 01:35 METAR KJYO 060535Z AUTO 35007KT 10SM BKN034 OVC039 11/11 A2969 RMK AO2 =
2016-05-06 01:15 METAR KJYO 060515Z AUTO 36007KT 10SM SCT038 OVC045 11/11 A2969 RMK AO2 =
2016-05-06 00:55 METAR KJYO 060455Z AUTO 35007KT 10SM SCT031 BKN039 OVC045 11/11 A2969 RMK AO2 =
2016-05-06 00:35 METAR KJYO 060435Z AUTO 34006KT 7SM -RA BKN030 OVC037 11/11 A2970 RMK AO2 =
2016-05-06 00:15 METAR KJYO 060415Z AUTO 34006KT 10SM -DZ OVC030 11/11 A2969 RMK AO2 =
2016-05-05 23:55 METAR KJYO 060355Z AUTO 34006KT 10SM -RA OVC034 11/11 A2970 RMK AO2 =
2016-05-05 23:35 METAR KJYO 060335Z AUTO 35007KT 10SM -RA OVC034 11/11 A2970 RMK AO2 =
2016-05-05 23:15 METAR KJYO 060315Z AUTO 35006KT 10SM -RA OVC036 11/11 A2970 RMK AO2 =
2016-05-05 22:55 METAR KJYO 060255Z AUTO 35005KT 10SM -RA SCT041 OVC048 11/11 A2970 RMK AO2 =
2016-05-05 22:35 METAR KJYO 060235Z AUTO 34005KT 7SM -RA SCT044 BKN050 OVC065 11/11 A2970 RMK AO2
                 =
2016-05-05 22:15 METAR KJYO 060215Z AUTO 36004KT 7SM RA SCT045 BKN060 OVC070 11/11 A2970 RMK AO2
                 =
2016-05-05 21:55 METAR KJYO 060155Z AUTO 01005KT 7SM RA BKN041 BKN047 OVC070 12/12 A2970 RMK AO2
                 =
2016-05-05 21:35 METAR KJYO 060135Z AUTO 36005KT 10SM -RA OVC039 12/12 A2969 RMK AO2 =
2016-05-05 21:15 METAR KJYO 060115Z AUTO 35004KT 7SM -RA OVC039 12/12 A2969 RMK AO2 =
2016-05-05 20:55 METAR KJYO 060055Z AUTO 02005KT 7SM RA OVC039 12/12 A2969 RMK AO2 =
2016-05-05 20:35 METAR KJYO 060035Z AUTO 02006KT 7SM RA SCT017 SCT025 OVC039 12/12 A2968 RMK AO2
                 =
2016-05-05 20:15 METAR KJYO 060015Z AUTO 34003KT 10SM SCT027 OVC039 12/12 A2968 RMK AO2 =
2016-05-05 19:55 METAR KJYO 052355Z AUTO 00000KT 10SM OVC039 12/12 A2967 RMK AO2 =
2016-05-05 19:35 METAR KJYO 052335Z AUTO 03003KT 7SM -RA SCT032 OVC038 12/12 A2967 RMK AO2 =
2016-05-05 19:15 METAR KJYO 052315Z AUTO 04004KT 10SM -RA BKN032 OVC038 13/12 A2966 RMK AO2 =
2016-05-05 18:55 METAR KJYO 052255Z AUTO 03006KT 10SM -RA OVC034 13/11 A2965 RMK AO2 =
2016-05-05 18:35 METAR KJYO 052235Z AUTO 02007G14KT 10SM SCT032 BKN046 OVC050 13/11 A2965 RMK AO2
                 =
2016-05-05 18:15 METAR KJYO 052215Z AUTO 02008KT 10SM SCT034 BKN060 OVC075 14/11 A2965 RMK AO2
                 LTG DSNT W =
2016-05-05 17:55 METAR KJYO 052155Z AUTO 02008KT 10SM BKN033 BKN060 OVC075 15/11 A2965 RMK AO2 =
2016-05-05 17:35 METAR KJYO 052135Z AUTO 36008KT 10SM SCT022 SCT028 OVC036 14/11 A2965 RMK AO2
                 LTG DSNT W =
2016-05-05 17:15 METAR KJYO 052115Z AUTO 03009KT 10SM SCT022 BKN036 OVC075 14/11 A2965 RMK AO2 =
2016-05-05 16:55 METAR KJYO 052055Z AUTO 02007KT 10SM BKN029 OVC036 14/11 A2965 RMK AO2 =
2016-05-05 16:35 METAR KJYO 052035Z AUTO 03007KT 10SM BKN020 OVC031 14/11 A2965 RMK AO2 LTG DSNT
                 NW =
2016-05-05 16:21 METAR KJYO 052021Z AUTO 01007KT 10SM OVC020 13/11 A2965 RMK AO2 =
2016-05-05 16:15 METAR KJYO 052015Z AUTO 01005KT 10SM OVC020 13/11 A2965 RMK AO2 =
2016-05-05 15:30 METAR KJYO 051930Z AUTO 02005KT 10SM OVC022 13/11 A2966 RMK AO2 =
2016-05-05 15:15 METAR KJYO 051915Z AUTO 02007KT 10SM OVC024 13/10 A2967 RMK AO2 =
2016-05-05 14:55 METAR KJYO 051855Z AUTO 03006KT 10SM SCT017 OVC026 12/11 A2967 RMK AO2 =
2016-05-05 14:35 METAR KJYO 051835Z AUTO 03004KT 7SM SCT015 BKN026 OVC031 12/11 A2967 RMK AO2 =
2016-05-05 14:15 METAR KJYO 051815Z AUTO 02006KT 7SM OVC015 12/11 A2967 RMK AO2 =
2016-05-05 13:55 METAR KJYO 051755Z AUTO 02005KT 3SM -RA BKN012 OVC018 12/12 A2967 RMK AO2 =
2016-05-05 13:35 METAR KJYO 051735Z AUTO 03006KT 1 3/4SM BR BKN009 OVC014 12/12 A2967 RMK AO2 =
2016-05-05 13:15 METAR KJYO 051715Z AUTO 02006KT 3SM -RA BKN009 OVC014 12/11 A2968 RMK AO2 =
2016-05-05 12:55 METAR KJYO 051655Z AUTO 02008KT 5SM -RA BKN012 OVC020 12/11 A2968 RMK AO2 =
2016-05-05 12:35 METAR KJYO 051635Z AUTO 02005KT 5SM BR OVC012 12/11 A2968 RMK AO2 =
2016-05-05 12:15 METAR KJYO 051615Z AUTO 03005KT 7SM OVC014 12/11 A2969 RMK AO2 =
2016-05-05 11:55 METAR KJYO 051555Z AUTO 03007KT 3SM BR OVC015 12/11 A2969 RMK AO2 =
2016-05-05 11:35 METAR KJYO 051535Z AUTO 04005KT 7SM OVC015 12/11 A2969 RMK AO2 =
2016-05-05 11:15 METAR KJYO 051515Z AUTO 05004KT 10SM BKN015 OVC019 12/11 A2969 RMK AO2 LTG DSNT
                 SW =
2016-05-05 10:55 METAR KJYO 051455Z AUTO 05006KT 7SM BKN013 OVC031 12/11 A2969 RMK AO2 =
2016-05-05 10:35 METAR KJYO 051435Z AUTO 02006KT 10SM BKN014 BKN019 OVC031 12/11 A2968 RMK AO2 =
2016-05-05 10:15 METAR KJYO 051415Z AUTO 03006KT 10SM OVC014 12/11 A2969 RMK AO2 =
2016-05-05 09:55 METAR KJYO 051355Z AUTO 04009KT 10SM OVC014 12/11 A2969 RMK AO2 =
2016-05-05 09:35 METAR KJYO 051335Z AUTO 03007KT 10SM OVC014 11/10 A2969 RMK AO2 =
2016-05-05 09:15 METAR KJYO 051315Z AUTO 04004KT 10SM OVC014 11/11 A2969 RMK AO2 =

Support USWX by starting your Amazon purchase here.